Time;durP1;ratioP1;P1;durP2;ratioP2;P2;SDS_P1;SDS_P2;PMS_P1;PMS_P2;Temp;Humidity;BMP_temperature;BMP_pressure;BME280_temperature;BME280_humidity;BME280_pressure;Samples;Min_cycle;Max_cycle;Signal;HPM_P1;HPM_P2
2021/05/04 00:01:38;;;;;;;18.73;10.87;;;9.90;99.90;;;;;;5067647;28;20216;-79
2021/05/04 00:04:06;;;;;;;20.60;11.27;;;9.80;99.90;;;;;;5065552;28;20204;-77
2021/05/04 00:06:32;;;;;;;22.13;11.63;;;9.80;99.90;;;;;;5063189;28;20611;-74
2021/05/04 00:08:59;;;;;;;15.47;9.87;;;9.80;99.90;;;;;;5064674;28;20614;-75
2021/05/04 00:11:25;;;;;;;19.23;11.30;;;9.80;99.90;;;;;;5064735;28;20544;-74
2021/05/04 00:13:52;;;;;;;16.50;10.70;;;9.80;99.90;;;;;;5064196;28;20212;-77
2021/05/04 00:16:18;;;;;;;15.10;10.60;;;9.80;99.90;;;;;;5064714;28;20291;-75
2021/05/04 00:18:44;;;;;;;18.83;11.07;;;9.70;99.90;;;;;;5063393;28;20212;-77
2021/05/04 00:21:12;;;;;;;14.10;10.90;;;9.70;99.90;;;;;;5064367;28;20200;-76
2021/05/04 00:23:38;;;;;;;15.20;11.07;;;9.70;99.90;;;;;;5064327;28;20229;-74
2021/05/04 00:26:04;;;;;;;15.60;10.07;;;9.70;99.90;;;;;;5063506;28;20205;-75
2021/05/04 00:28:30;;;;;;;13.97;10.40;;;9.70;99.90;;;;;;5064037;28;20205;-78
2021/05/04 00:30:57;;;;;;;16.30;11.40;;;9.70;99.90;;;;;;5064076;28;20201;-75
2021/05/04 00:33:23;;;;;;;16.90;10.70;;;9.60;99.90;;;;;;5063836;28;20240;-76
2021/05/04 00:35:50;;;;;;;15.17;10.80;;;9.50;99.90;;;;;;5063702;28;20867;-78
2021/05/04 00:38:18;;;;;;;11.73;10.03;;;9.50;99.90;;;;;;5063961;28;20205;-75
2021/05/04 00:40:44;;;;;;;13.17;10.37;;;9.50;99.90;;;;;;5063568;28;20288;-79
2021/05/04 00:43:10;;;;;;;12.17;10.00;;;9.40;99.90;;;;;;5063567;28;20205;-76
2021/05/04 00:45:37;;;;;;;13.03;10.53;;;9.40;99.90;;;;;;5063987;28;20208;-74
2021/05/04 00:48:03;;;;;;;12.63;10.07;;;9.40;99.90;;;;;;5063201;28;20209;-78
2021/05/04 00:50:30;;;;;;;13.27;10.13;;;9.40;99.90;;;;;;5063704;28;20504;-76
2021/05/04 00:52:56;;;;;;;11.00;9.87;;;9.40;99.90;;;;;;5063301;28;20248;-78
2021/05/04 00:55:24;;;;;;;10.13;9.03;;;9.40;99.90;;;;;;5063103;28;20205;-80
2021/05/04 00:57:51;;;;;;;12.13;10.03;;;9.40;99.90;;;;;;5083247;28;20919;-76
2021/05/04 01:00:18;;;;;;;11.23;9.60;;;9.40;99.90;;;;;;5082041;28;20820;-79
2021/05/04 01:02:46;;;;;;;11.70;9.67;;;9.40;99.90;;;;;;5063237;28;20223;-77
2021/05/04 01:05:12;;;;;;;15.17;9.60;;;9.40;99.90;;;;;;5063726;28;20614;-75
2021/05/04 01:07:39;;;;;;;10.17;9.17;;;9.40;99.90;;;;;;5063038;28;20235;-78
2021/05/04 01:10:06;;;;;;;11.30;9.50;;;9.40;99.90;;;;;;5062529;28;20221;-77
2021/05/04 01:12:34;;;;;;;11.43;10.17;;;9.40;99.90;;;;;;5063912;28;20225;-77
2021/05/04 01:15:00;;;;;;;11.73;8.93;;;9.40;99.90;;;;;;5063643;28;20205;-77
2021/05/04 01:17:26;;;;;;;11.37;9.27;;;9.40;99.90;;;;;;5063575;28;20208;-78
2021/05/04 01:19:53;;;;;;;9.60;8.53;;;9.40;99.90;;;;;;5063236;28;20465;-78
2021/05/04 01:22:20;;;;;;;10.70;8.57;;;9.30;99.90;;;;;;5062581;28;20330;-77
2021/05/04 01:24:46;;;;;;;10.60;8.30;;;9.30;99.90;;;;;;5062852;28;20193;-77
2021/05/04 01:27:14;;;;;;;10.97;8.60;;;9.30;99.90;;;;;;5063197;28;20197;-78
2021/05/04 01:29:40;;;;;;;9.53;7.73;;;9.30;99.90;;;;;;5062802;28;20231;-78
2021/05/04 01:32:07;;;;;;;8.40;7.50;;;9.30;99.90;;;;;;5063970;28;20231;-78
2021/05/04 01:34:33;;;;;;;9.40;7.73;;;9.30;99.90;;;;;;5063217;28;20448;-77
2021/05/04 01:37:00;;;;;;;8.17;7.10;;;9.40;99.90;;;;;;5078173;28;20216;-74
2021/05/04 01:39:36;;;;;;;8.27;6.23;;;9.30;99.90;;;;;;5083577;28;20201;-73
2021/05/04 01:42:03;;;;;;;6.93;6.23;;;9.40;99.90;;;;;;5083297;28;20192;-77
2021/05/04 01:44:29;;;;;;;8.70;5.90;;;9.40;99.90;;;;;;5077957;28;20333;-76
2021/05/04 01:46:55;;;;;;;7.23;5.47;;;9.30;99.90;;;;;;5063485;28;20504;-76
2021/05/04 01:49:21;;;;;;;8.87;5.83;;;9.40;99.90;;;;;;5062662;28;20209;-76
2021/05/04 01:51:48;;;;;;;5.27;4.77;;;9.40;99.90;;;;;;5063321;28;20217;-77
2021/05/04 01:54:14;;;;;;;7.07;4.80;;;9.40;99.90;;;;;;5063591;28;20262;-77
2021/05/04 01:56:41;;;;;;;8.10;5.10;;;9.40;99.90;;;;;;5063452;28;20212;-77
2021/05/04 01:59:07;;;;;;;9.80;4.80;;;9.40;99.90;;;;;;5062277;28;20201;-77
2021/05/04 02:01:34;;;;;;;6.97;4.10;;;9.30;99.90;;;;;;5063084;28;20238;-78
2021/05/04 02:04:00;;;;;;;8.20;4.50;;;9.40;99.90;;;;;;5063011;28;20248;-75
2021/05/04 02:06:26;;;;;;;7.00;3.87;;;9.30;99.90;;;;;;5080674;28;20428;-77
2021/05/04 02:08:52;;;;;;;7.30;3.93;;;9.40;99.90;;;;;;5082352;28;20852;-78
2021/05/04 02:11:19;;;;;;;7.63;3.50;;;9.30;99.90;;;;;;5082345;28;20224;-77
2021/05/04 02:13:46;;;;;;;8.93;3.73;;;9.40;99.90;;;;;;5075791;28;20201;-76
2021/05/04 02:16:12;;;;;;;4.70;4.17;;;9.50;99.90;;;;;;5062938;28;20575;-76
2021/05/04 02:18:38;;;;;;;5.97;3.90;;;9.40;99.90;;;;;;5061872;28;20209;-78
2021/05/04 02:21:05;;;;;;;7.07;3.97;;;9.40;99.90;;;;;;5062607;28;20475;-77
2021/05/04 02:23:31;;;;;;;6.17;4.13;;;9.40;99.90;;;;;;5062801;28;20233;-77
2021/05/04 02:25:58;;;;;;;8.60;4.20;;;9.40;99.90;;;;;;5061395;28;20209;-75
2021/05/04 02:28:24;;;;;;;8.77;3.87;;;9.40;99.90;;;;;;5061763;28;20220;-77
2021/05/04 02:30:51;;;;;;;4.23;3.53;;;9.40;99.90;;;;;;5062859;28;20212;-77
2021/05/04 02:33:17;;;;;;;7.07;3.87;;;9.40;99.90;;;;;;5062010;28;20582;-76
2021/05/04 02:35:44;;;;;;;8.17;4.47;;;9.40;99.90;;;;;;5063001;28;20597;-79
2021/05/04 02:38:10;;;;;;;8.30;4.80;;;9.40;99.90;;;;;;5062284;28;20632;-76
2021/05/04 02:40:36;;;;;;;10.83;4.20;;;9.50;99.90;;;;;;5062074;28;20215;-76
2021/05/04 02:43:02;;;;;;;7.47;4.13;;;9.50;99.90;;;;;;5062957;28;20202;-76
2021/05/04 02:45:29;;;;;;;9.37;3.77;;;9.50;99.90;;;;;;5062225;28;20201;-77
2021/05/04 02:47:56;;;;;;;7.90;3.80;;;9.50;99.90;;;;;;5061483;28;20202;-77
2021/05/04 02:50:22;;;;;;;9.27;3.87;;;9.50;99.90;;;;;;5063176;28;20197;-74
2021/05/04 02:52:49;;;;;;;5.87;3.57;;;9.50;99.90;;;;;;5061437;28;20241;-76
2021/05/04 02:55:16;;;;;;;7.97;4.00;;;9.60;99.90;;;;;;5062552;28;20203;-78
2021/05/04 02:57:43;;;;;;;5.57;3.23;;;9.60;99.90;;;;;;5062015;28;20205;-76
2021/05/04 03:00:10;;;;;;;4.70;3.50;;;9.70;99.90;;;;;;5063952;28;20629;-77
2021/05/04 03:02:37;;;;;;;6.13;3.80;;;9.70;99.90;;;;;;5065417;28;20197;-75
2021/05/04 03:05:05;;;;;;;7.27;3.90;;;9.70;99.90;;;;;;5065912;28;20212;-77
2021/05/04 03:07:31;;;;;;;10.97;4.63;;;9.70;99.90;;;;;;5065747;28;20239;-77
2021/05/04 03:09:57;;;;;;;9.17;4.47;;;9.70;99.90;;;;;;5065269;28;20782;-77
2021/05/04 03:12:24;;;;;;;10.70;4.87;;;9.70;99.90;;;;;;5066005;28;20621;-79
2021/05/04 03:14:50;;;;;;;13.07;4.77;;;9.70;99.90;;;;;;5064990;28;20271;-74
2021/05/04 03:17:16;;;;;;;13.50;4.57;;;9.70;99.90;;;;;;5065457;28;20282;-77
2021/05/04 03:19:43;;;;;;;14.27;5.00;;;9.70;99.90;;;;;;5065362;28;20214;-75
2021/05/04 03:22:10;;;;;;;13.60;5.70;;;9.70;99.90;;;;;;5065230;28;20259;-76
2021/05/04 03:24:36;;;;;;;17.77;6.37;;;9.70;99.90;;;;;;5065479;28;20189;-76
2021/05/04 03:27:03;;;;;;;27.03;5.50;;;9.70;99.90;;;;;;5065668;28;20206;-78
2021/05/04 03:29:29;;;;;;;13.17;5.43;;;9.70;99.90;;;;;;5064675;28;20213;-75
2021/05/04 03:31:55;;;;;;;19.13;5.93;;;9.70;99.90;;;;;;5064595;28;20225;-76
2021/05/04 03:34:21;;;;;;;20.47;5.93;;;9.70;99.90;;;;;;5065418;28;20430;-77
2021/05/04 03:36:48;;;;;;;18.93;5.83;;;9.80;99.90;;;;;;5064779;28;20201;-75
2021/05/04 03:39:15;;;;;;;18.03;6.63;;;9.70;99.90;;;;;;5065131;28;20209;-75
2021/05/04 03:41:41;;;;;;;22.23;6.83;;;9.70;99.90;;;;;;5065081;28;20209;-77
2021/05/04 03:44:07;;;;;;;24.20;6.23;;;9.70;99.90;;;;;;5064244;28;20205;-76
2021/05/04 03:46:34;;;;;;;26.33;6.83;;;9.80;99.90;;;;;;5065332;28;20531;-79
2021/05/04 03:49:00;;;;;;;28.13;6.77;;;9.80;99.90;;;;;;5065322;28;20201;-78
2021/05/04 03:51:26;;;;;;;37.30;6.60;;;9.90;99.90;;;;;;5064412;28;20264;-77
2021/05/04 03:53:52;;;;;;;35.83;8.70;;;9.90;99.90;;;;;;5064810;28;20260;-76
2021/05/04 03:56:19;;;;;;;37.20;7.43;;;9.90;99.90;;;;;;5065137;28;20204;-79
2021/05/04 03:58:46;;;;;;;37.70;9.40;;;9.90;99.90;;;;;;5064360;28;20201;-76
2021/05/04 04:01:12;;;;;;;43.93;8.53;;;10.00;99.90;;;;;;5064794;28;20348;-76
2021/05/04 04:03:38;;;;;;;34.03;8.07;;;10.00;99.90;;;;;;5064774;28;20205;-76
2021/05/04 04:13:45;;;;;;;38.77;8.40;;;10.10;99.90;;;;;;4959377;28;20853;-79
2021/05/04 04:16:11;;;;;;;38.23;7.13;;;10.10;99.90;;;;;;5070535;28;20205;-76
2021/05/04 04:18:38;;;;;;;34.70;7.80;;;10.10;99.90;;;;;;5063633;28;20201;-76
2021/05/04 04:21:04;;;;;;;43.43;8.47;;;10.10;99.90;;;;;;5064739;28;20201;-77
2021/05/04 04:23:30;;;;;;;37.00;7.80;;;10.00;99.90;;;;;;5064014;28;20228;-76
2021/05/04 04:25:57;;;;;;;37.43;8.40;;;10.10;99.90;;;;;;5064142;28;20206;-75
2021/05/04 04:28:23;;;;;;;39.17;8.07;;;10.10;99.90;;;;;;5064460;28;20216;-76
2021/05/04 04:30:50;;;;;;;47.87;8.83;;;10.10;99.90;;;;;;5064509;28;20205;-78
2021/05/04 04:33:23;;;;;;;43.63;8.57;;;10.10;99.90;;;;;;5063594;28;20712;-76
2021/05/04 04:35:49;;;;;;;45.80;8.93;;;10.10;99.90;;;;;;5064147;28;20208;-78
2021/05/04 04:38:15;;;;;;;51.93;10.73;;;10.10;99.90;;;;;;5064868;28;20244;-75
2021/05/04 04:40:43;;;;;;;38.03;9.37;;;10.10;99.90;;;;;;5063779;28;20407;-78
2021/05/04 04:43:09;;;;;;;45.20;8.47;;;10.10;99.90;;;;;;5064479;28;20201;-76
2021/05/04 04:45:36;;;;;;;37.30;7.97;;;10.10;99.90;;;;;;5063943;28;20200;-77
2021/05/04 04:48:03;;;;;;;35.80;8.60;;;10.10;99.90;;;;;;5063513;28;20197;-78
2021/05/04 04:50:29;;;;;;;41.80;9.23;;;10.10;99.90;;;;;;5064271;28;20217;-76
2021/05/04 04:52:55;;;;;;;37.83;8.93;;;10.10;99.90;;;;;;5062382;28;20236;-76
2021/05/04 04:55:22;;;;;;;29.13;7.07;;;10.20;99.90;;;;;;5064110;28;20221;-75
2021/05/04 04:57:48;;;;;;;47.17;9.40;;;10.20;99.90;;;;;;5064096;28;20259;-76
2021/05/04 05:00:15;;;;;;;31.80;8.90;;;10.20;99.90;;;;;;5063521;28;20204;-78
2021/05/04 05:02:41;;;;;;;37.77;9.20;;;10.20;99.90;;;;;;5063167;28;20201;-77
2021/05/04 05:05:09;;;;;;;36.30;8.90;;;10.20;99.90;;;;;;5063967;28;20634;-78
2021/05/04 05:07:36;;;;;;;38.93;9.47;;;10.30;99.90;;;;;;5063261;28;20212;-76
2021/05/04 05:10:02;;;;;;;33.37;8.20;;;10.30;99.90;;;;;;5063397;28;20968;-78
2021/05/04 05:12:28;;;;;;;32.80;7.90;;;10.30;99.90;;;;;;5077279;28;20258;-77
2021/05/04 05:14:55;;;;;;;35.23;9.50;;;10.30;99.90;;;;;;5083520;28;20206;-77
2021/05/04 05:17:21;;;;;;;32.87;8.93;;;10.40;99.90;;;;;;5066949;28;20227;-75
2021/05/04 05:19:48;;;;;;;32.37;8.63;;;10.40;99.90;;;;;;5063542;28;20208;-76
2021/05/04 05:22:15;;;;;;;36.53;8.43;;;10.40;99.90;;;;;;5062344;28;21082;-77
2021/05/04 05:24:41;;;;;;;39.40;8.17;;;10.50;99.90;;;;;;5062250;28;20883;-77
2021/05/04 05:27:08;;;;;;;27.77;7.00;;;10.50;99.90;;;;;;5062356;28;20694;-77
2021/05/04 05:29:34;;;;;;;33.17;8.90;;;10.50;99.90;;;;;;5062683;28;20204;-76
2021/05/04 05:32:01;;;;;;;37.20;8.47;;;10.50;99.90;;;;;;5063159;28;20225;-78
2021/05/04 05:34:27;;;;;;;32.40;6.93;;;10.50;99.90;;;;;;5063070;28;20232;-72
2021/05/04 05:36:53;;;;;;;29.13;7.20;;;10.50;99.90;;;;;;5062712;28;20224;-76
2021/05/04 05:39:21;;;;;;;39.73;9.07;;;10.60;99.90;;;;;;5063127;28;20206;-78
2021/05/04 05:41:47;;;;;;;30.23;7.50;;;10.60;99.90;;;;;;5062697;28;20525;-78
2021/05/04 05:44:14;;;;;;;27.70;6.10;;;10.60;99.90;;;;;;5061627;28;20283;-76
2021/05/04 05:46:40;;;;;;;32.53;7.73;;;10.70;99.90;;;;;;5062847;28;20197;-76
2021/05/04 05:49:07;;;;;;;27.40;7.00;;;10.70;99.90;;;;;;5062839;28;20208;-77
2021/05/04 05:51:33;;;;;;;21.37;5.73;;;10.70;99.90;;;;;;5062593;28;20205;-77
2021/05/04 05:53:59;;;;;;;23.77;6.57;;;10.80;99.90;;;;;;5062398;28;20629;-78
2021/05/04 05:56:26;;;;;;;22.80;6.10;;;10.80;99.90;;;;;;5061200;28;20201;-77
2021/05/04 05:58:53;;;;;;;25.13;6.17;;;10.80;99.90;;;;;;5062236;28;20235;-77
2021/05/04 06:01:19;;;;;;;26.03;6.10;;;10.80;99.90;;;;;;5062954;28;20212;-77
2021/05/04 06:03:45;;;;;;;30.07;6.07;;;10.90;99.90;;;;;;5062301;28;20201;-78
2021/05/04 06:06:11;;;;;;;22.70;5.50;;;10.80;99.90;;;;;;5062736;28;20216;-75
2021/05/04 06:08:38;;;;;;;29.60;8.63;;;10.80;99.90;;;;;;5062503;28;20280;-78
2021/05/04 06:11:04;;;;;;;26.73;6.43;;;10.80;99.90;;;;;;5062086;28;20209;-76
2021/05/04 06:13:31;;;;;;;32.80;5.87;;;10.80;99.90;;;;;;5062637;28;20225;-77
2021/05/04 06:15:57;;;;;;;27.87;6.93;;;10.90;99.90;;;;;;5062019;28;20223;-76
2021/05/04 06:18:23;;;;;;;23.50;5.53;;;10.90;99.90;;;;;;5061541;28;20209;-76
2021/05/04 06:20:50;;;;;;;23.57;5.50;;;10.90;99.90;;;;;;5062700;28;20209;-76
2021/05/04 06:23:16;;;;;;;24.07;6.80;;;10.90;99.90;;;;;;5062628;28;20347;-76
2021/05/04 06:25:43;;;;;;;27.00;7.03;;;10.90;99.90;;;;;;5062361;28;20205;-76
2021/05/04 06:28:10;;;;;;;28.20;7.83;;;11.00;99.90;;;;;;5062050;28;20519;-76
2021/05/04 06:30:39;;;;;;;37.97;8.90;;;11.10;99.90;;;;;;5062205;28;20296;-75
2021/05/04 06:33:07;;;;;;;27.23;6.23;;;11.30;99.90;;;;;;5061580;28;20227;-76
2021/05/04 06:35:35;;;;;;;27.57;7.47;;;11.40;99.90;;;;;;5064943;28;20203;-77
2021/05/04 06:38:02;;;;;;;37.30;10.60;;;11.50;99.90;;;;;;5065641;28;20548;-76
2021/05/04 06:40:29;;;;;;;25.13;6.63;;;11.50;99.90;;;;;;5065731;28;20197;-77
2021/05/04 06:42:55;;;;;;;26.13;6.93;;;11.60;99.90;;;;;;5066575;28;20205;-76
2021/05/04 06:45:21;;;;;;;28.37;6.70;;;11.90;99.90;;;;;;5066054;28;20672;-75
2021/05/04 06:47:48;;;;;;;29.17;5.97;;;12.00;99.90;;;;;;5065400;28;20205;-76
2021/05/04 06:50:15;;;;;;;28.03;6.23;;;12.00;99.90;;;;;;5066071;28;20945;-75
2021/05/04 06:52:42;;;;;;;20.63;5.90;;;12.00;99.90;;;;;;5065316;28;20552;-75
2021/05/04 06:55:09;;;;;;;22.40;6.33;;;11.90;99.90;;;;;;5065332;28;20596;-76
2021/05/04 06:57:36;;;;;;;19.27;5.50;;;11.80;99.90;;;;;;5065360;28;20200;-76
2021/05/04 07:00:03;;;;;;;23.23;5.90;;;11.80;99.90;;;;;;5064230;28;20413;-76
2021/05/04 07:02:29;;;;;;;23.27;5.83;;;11.80;99.90;;;;;;5065625;28;20212;-76
2021/05/04 07:04:57;;;;;;;20.70;5.30;;;11.80;99.90;;;;;;5032146;28;20713;-74
2021/05/04 07:07:24;;;;;;;21.33;5.30;;;12.20;99.90;;;;;;5064599;28;20194;-75
2021/05/04 07:09:50;;;;;;;21.20;5.10;;;12.60;99.90;;;;;;5065578;28;20220;-77
2021/05/04 07:12:16;;;;;;;20.40;4.50;;;13.00;99.90;;;;;;5065624;28;20634;-76
2021/05/04 07:14:42;;;;;;;23.87;6.17;;;13.40;99.90;;;;;;5063720;28;20253;-75
2021/05/04 07:17:09;;;;;;;19.07;4.57;;;13.60;99.90;;;;;;5064720;28;20208;-75
2021/05/04 07:19:38;;;;;;;19.03;5.33;;;13.40;99.90;;;;;;5064930;28;20208;-76
2021/05/04 07:22:08;;;;;;;15.83;4.13;;;13.10;99.90;;;;;;5064448;28;20212;-76
2021/05/04 07:24:35;;;;;;;13.50;2.90;;;12.80;99.90;;;;;;5065222;28;20613;-76
2021/05/04 07:27:01;;;;;;;10.23;3.27;;;12.40;99.90;;;;;;5064651;28;20197;-75
2021/05/04 07:29:27;;;;;;;14.67;3.23;;;12.20;99.90;;;;;;5064568;28;20277;-75
2021/05/04 07:31:54;;;;;;;14.87;3.60;;;12.20;99.90;;;;;;5065373;28;20233;-75
2021/05/04 07:34:20;;;;;;;21.40;4.17;;;12.50;99.90;;;;;;5064835;28;20213;-76
2021/05/04 07:36:46;;;;;;;19.53;4.33;;;12.80;99.90;;;;;;5063404;28;20543;-76
2021/05/04 07:39:13;;;;;;;23.17;5.77;;;12.90;99.90;;;;;;5066072;28;20289;-75
2021/05/04 07:41:40;;;;;;;18.57;4.17;;;12.90;99.90;;;;;;5084722;28;20742;-76
2021/05/04 07:44:06;;;;;;;23.70;5.37;;;12.90;99.90;;;;;;5068205;28;20205;-76
2021/05/04 07:46:33;;;;;;;22.87;5.47;;;13.00;99.90;;;;;;5064137;28;20296;-75
2021/05/04 07:48:59;;;;;;;21.30;5.23;;;12.90;99.90;;;;;;5064362;28;20204;-75
2021/05/04 07:51:25;;;;;;;21.20;6.13;;;12.90;99.90;;;;;;5064883;28;20316;-75
2021/05/04 07:53:52;;;;;;;17.53;4.70;;;12.90;99.90;;;;;;5064304;28;20946;-76
2021/05/04 07:56:19;;;;;;;22.67;4.90;;;13.00;99.90;;;;;;5063434;28;20683;-76
2021/05/04 07:58:45;;;;;;;20.63;5.10;;;13.00;99.90;;;;;;5080861;28;20205;-78
2021/05/04 08:01:11;;;;;;;19.73;5.43;;;12.80;99.90;;;;;;5064603;28;20212;-74
2021/05/04 08:03:38;;;;;;;23.07;5.60;;;12.70;99.90;;;;;;5063769;28;20204;-75
2021/05/04 08:06:04;;;;;;;21.83;6.10;;;12.70;99.90;;;;;;5064524;28;20201;-78
2021/05/04 08:08:31;;;;;;;17.73;5.63;;;12.60;99.90;;;;;;5063868;28;20624;-75
2021/05/04 08:10:57;;;;;;;21.37;5.40;;;12.50;99.90;;;;;;5063204;28;20228;-77
2021/05/04 08:13:24;;;;;;;17.53;4.50;;;12.40;99.90;;;;;;5064391;28;20237;-76
2021/05/04 08:15:51;;;;;;;21.50;5.23;;;12.30;99.90;;;;;;5064411;28;20212;-77
2021/05/04 08:18:18;;;;;;;20.90;5.13;;;12.20;99.90;;;;;;5064022;28;20209;-77
2021/05/04 08:20:48;;;;;;;22.30;5.27;;;12.10;99.90;;;;;;5063850;28;20208;-76
2021/05/04 08:23:15;;;;;;;20.53;5.50;;;12.10;99.90;;;;;;5064324;28;20711;-76
2021/05/04 08:25:41;;;;;;;35.37;7.07;;;12.10;99.90;;;;;;5063656;28;20509;-75
2021/05/04 08:28:08;;;;;;;14.90;4.30;;;12.10;99.90;;;;;;5063918;28;20649;-76
2021/05/04 08:30:35;;;;;;;18.80;4.93;;;12.10;99.90;;;;;;5063998;28;20205;-76
2021/05/04 08:33:03;;;;;;;17.33;3.97;;;12.20;99.90;;;;;;5062580;28;20661;-74
2021/05/04 08:35:30;;;;;;;17.67;4.80;;;12.20;99.90;;;;;;5063619;28;20209;-75
2021/05/04 08:37:57;;;;;;;15.83;4.43;;;12.20;99.90;;;;;;5063809;28;20228;-75
2021/05/04 08:40:24;;;;;;;16.93;4.60;;;12.30;99.90;;;;;;5081438;28;20341;-75
2021/05/04 08:42:50;;;;;;;16.57;4.60;;;12.30;99.90;;;;;;5074832;28;20548;-75
2021/05/04 08:45:18;;;;;;;12.90;3.00;;;12.30;99.90;;;;;;5063926;28;20254;-75
2021/05/04 08:47:47;;;;;;;17.07;3.47;;;12.40;99.90;;;;;;5063119;28;20224;-76
2021/05/04 08:50:15;;;;;;;12.20;4.23;;;12.40;99.90;;;;;;5063533;28;20247;-76
2021/05/04 08:52:41;;;;;;;13.60;3.93;;;12.40;99.90;;;;;;5062210;28;20731;-75
2021/05/04 08:55:09;;;;;;;14.13;4.70;;;12.40;99.90;;;;;;5063645;28;20205;-76
2021/05/04 08:57:37;;;;;;;9.57;2.70;;;12.30;99.90;;;;;;5063409;28;20212;-76
2021/05/04 09:00:06;;;;;;;9.00;2.70;;;12.20;99.90;;;;;;5062463;28;20201;-78
2021/05/04 09:02:35;;;;;;;9.20;1.90;;;12.10;99.90;;;;;;5063657;28;20201;-77
2021/05/04 09:05:15;;;;;;;16.87;3.20;;;12.00;99.90;;;;;;5063223;28;20201;-76
2021/05/04 09:07:42;;;;;;;15.50;3.53;;;11.90;99.90;;;;;;5061088;28;20204;-77
2021/05/04 09:10:21;;;;;;;13.87;3.30;;;11.80;99.90;;;;;;5062881;28;20201;-76
2021/05/04 09:12:52;;;;;;;16.27;3.67;;;11.70;99.90;;;;;;5062805;28;20271;-76
2021/05/04 09:18:37;;;;;;;10.33;2.83;;;11.30;99.90;;;;;;5050351;28;20816;-76
2021/05/04 09:21:06;;;;;;;12.63;2.90;;;11.10;99.90;;;;;;5061271;28;20304;-78
2021/05/04 09:23:32;;;;;;;11.67;2.93;;;11.00;99.90;;;;;;5062266;28;21001;-77
2021/05/04 09:25:59;;;;;;;12.80;3.40;;;11.10;99.90;;;;;;5061800;28;20212;-76
2021/05/04 09:28:25;;;;;;;17.20;4.00;;;11.20;99.90;;;;;;5062115;28;20284;-77
2021/05/04 09:30:53;;;;;;;8.90;2.70;;;11.40;99.90;;;;;;5062103;28;20208;-76
2021/05/04 09:33:19;;;;;;;13.50;4.13;;;11.50;99.90;;;;;;5063089;28;20221;-76
2021/05/04 09:35:46;;;;;;;12.63;3.23;;;11.50;99.90;;;;;;5061917;28;20251;-75
2021/05/04 09:38:14;;;;;;;12.77;3.17;;;11.40;99.90;;;;;;5062152;28;20205;-76
2021/05/04 09:40:42;;;;;;;15.60;3.97;;;11.40;99.90;;;;;;5062416;28;20209;-74
2021/05/04 09:43:13;;;;;;;9.60;3.00;;;11.30;99.90;;;;;;5062268;28;20276;-77
2021/05/04 09:45:42;;;;;;;11.87;4.10;;;11.30;99.90;;;;;;5062700;28;20395;-77
2021/05/04 09:48:17;;;;;;;15.03;3.20;;;11.50;99.90;;;;;;5062591;28;20307;-77
2021/05/04 09:50:59;;;;;;;18.30;4.80;;;11.60;99.90;;;;;;5062957;28;20228;-76
2021/05/04 09:53:35;;;;;;;13.93;3.70;;;11.70;99.90;;;;;;5080641;28;20888;-77
2021/05/04 09:56:03;;;;;;;13.37;3.83;;;11.80;99.90;;;;;;5081302;28;20204;-76
2021/05/04 09:58:50;;;;;;;8.10;2.90;;;11.80;99.90;;;;;;5075663;28;20213;-76
2021/05/04 10:01:18;;;;;;;13.83;3.30;;;11.80;99.90;;;;;;5068425;28;20208;-78
2021/05/04 10:03:46;;;;;;;10.80;3.33;;;11.80;99.90;;;;;;5081170;28;20265;-77
2021/05/04 10:06:13;;;;;;;9.50;2.67;;;11.70;99.90;;;;;;5081962;28;20934;-78
2021/05/04 10:08:42;;;;;;;14.97;2.63;;;11.50;99.90;;;;;;5078622;28;20212;-78
2021/05/04 10:11:10;;;;;;;11.57;2.33;;;11.30;99.90;;;;;;5061797;28;20212;-78
2021/05/04 10:13:38;;;;;;;11.10;2.60;;;11.20;99.90;;;;;;5061623;28;20249;-78
2021/05/04 10:16:06;;;;;;;16.67;4.50;;;11.20;99.90;;;;;;5062767;28;20209;-76
2021/05/04 10:18:33;;;;;;;9.60;3.20;;;11.10;99.90;;;;;;5071208;28;20220;-76
2021/05/04 10:21:02;;;;;;;15.40;4.07;;;11.10;99.90;;;;;;5082360;28;20208;-76
2021/05/04 10:23:30;;;;;;;12.53;3.63;;;11.10;99.90;;;;;;5080153;28;20231;-75
2021/05/04 10:26:00;;;;;;;10.40;3.67;;;11.10;99.90;;;;;;5081314;28;20745;-75
2021/05/04 10:28:32;;;;;;;8.67;3.13;;;11.00;99.90;;;;;;5071502;28;20305;-76
2021/05/04 10:31:00;;;;;;;13.23;3.43;;;11.00;99.90;;;;;;5080780;28;20220;-78
2021/05/04 10:33:28;;;;;;;13.63;3.47;;;10.90;99.90;;;;;;5082471;28;20235;-77
2021/05/04 10:35:54;;;;;;;11.83;3.03;;;10.90;99.90;;;;;;5062755;28;20209;-77
2021/05/04 10:38:21;;;;;;;16.60;4.77;;;10.90;99.90;;;;;;5071347;28;20207;-75
2021/05/04 10:40:59;;;;;;;12.27;2.77;;;10.80;99.90;;;;;;5080394;28;20284;-75
2021/05/04 10:43:43;;;;;;;18.00;3.80;;;10.80;99.90;;;;;;5068754;28;20216;-75
2021/05/04 10:46:30;;;;;;;14.80;4.00;;;10.70;99.90;;;;;;5060269;28;20203;-76
2021/05/04 10:48:56;;;;;;;18.07;5.40;;;10.70;99.90;;;;;;5061670;28;20205;-76
2021/05/04 10:51:43;;;;;;;17.83;4.27;;;10.60;99.90;;;;;;5061430;28;20201;-78
2021/05/04 10:54:10;;;;;;;11.17;3.53;;;10.50;99.90;;;;;;5061950;28;20216;-77
2021/05/04 10:56:41;;;;;;;14.33;2.93;;;10.40;99.90;;;;;;5062077;28;20209;-76
2021/05/04 10:59:11;;;;;;;11.93;2.80;;;10.30;99.90;;;;;;5062047;28;20559;-77
2021/05/04 11:01:37;;;;;;;12.43;3.23;;;10.40;99.90;;;;;;5062776;28;20205;-77
2021/05/04 11:04:06;;;;;;;15.73;3.13;;;10.40;99.90;;;;;;5061757;28;20220;-77
2021/05/04 11:06:49;;;;;;;15.57;3.10;;;10.50;99.90;;;;;;5062362;28;20822;-78
2021/05/04 11:09:17;;;;;;;12.57;3.27;;;10.50;99.90;;;;;;5062440;28;20197;-77
2021/05/04 11:11:46;;;;;;;18.80;3.23;;;10.40;99.90;;;;;;5070659;28;20617;-75
2021/05/04 11:14:39;;;;;;;15.27;3.00;;;10.40;99.90;;;;;;5076789;28;20636;-76
2021/05/04 11:17:14;;;;;;;13.73;3.63;;;10.40;99.90;;;;;;5077845;28;20232;-79
2021/05/04 11:19:43;;;;;;;11.33;2.80;;;10.30;99.90;;;;;;5062060;28;20746;-76
2021/05/04 11:22:24;;;;;;;16.00;3.83;;;10.30;99.90;;;;;;5063732;28;20212;-78
2021/05/04 11:24:52;;;;;;;14.23;3.43;;;10.30;99.90;;;;;;5066126;28;20273;-77
2021/05/04 11:27:27;;;;;;;22.50;4.83;;;10.20;99.90;;;;;;5065186;28;20198;-80
2021/05/04 11:29:58;;;;;;;15.57;3.63;;;10.10;99.90;;;;;;5065667;28;20310;-79
2021/05/04 11:32:28;;;;;;;21.70;3.97;;;10.00;99.90;;;;;;5065571;28;20304;-77
2021/05/04 11:34:58;;;;;;;10.37;3.47;;;9.90;99.90;;;;;;5085187;28;20204;-77
2021/05/04 11:37:38;;;;;;;13.50;2.60;;;9.90;99.90;;;;;;5085245;28;20689;-78
2021/05/04 11:40:09;;;;;;;18.63;3.70;;;9.90;99.90;;;;;;5085738;28;20210;-77
2021/05/04 11:42:40;;;;;;;18.03;4.10;;;9.90;99.90;;;;;;5083491;28;20295;-81
2021/05/04 11:45:11;;;;;;;12.63;4.73;;;10.00;99.90;;;;;;5085480;28;20196;-78
2021/05/04 11:47:38;;;;;;;17.73;3.37;;;10.00;99.90;;;;;;5072160;28;20197;-77
2021/05/04 11:50:11;;;;;;;12.90;2.90;;;10.00;99.90;;;;;;5065163;28;20555;-78
2021/05/04 11:52:39;;;;;;;11.47;2.80;;;10.10;99.90;;;;;;5064597;28;20275;-78
2021/05/04 11:55:08;;;;;;;13.57;4.07;;;10.20;99.90;;;;;;5064950;28;20205;-78
2021/05/04 11:57:35;;;;;;;18.20;3.70;;;10.20;99.90;;;;;;5064742;28;20258;-78
2021/05/04 12:00:01;;;;;;;12.13;3.37;;;10.10;99.90;;;;;;5064785;28;20602;-79
2021/05/04 12:02:30;;;;;;;10.43;3.33;;;10.10;99.90;;;;;;5064170;28;20266;-77
2021/05/04 12:04:56;;;;;;;17.57;3.63;;;10.10;99.90;;;;;;5065100;28;20208;-77
2021/05/04 12:07:42;;;;;;;10.37;2.90;;;10.00;99.90;;;;;;5064461;28;20570;-77
2021/05/04 12:10:25;;;;;;;14.53;4.03;;;10.00;99.90;;;;;;5063885;28;20223;-76
2021/05/04 12:12:53;;;;;;;17.03;4.57;;;10.00;99.90;;;;;;5062254;28;20274;-79
2021/05/04 12:15:20;;;;;;;13.90;3.47;;;10.00;99.90;;;;;;5064863;28;20216;-78
2021/05/04 12:17:59;;;;;;;18.27;4.33;;;10.00;99.90;;;;;;5064090;28;20204;-76
2021/05/04 12:20:27;;;;;;;24.77;5.27;;;10.00;99.90;;;;;;5065370;28;20205;-77
2021/05/04 12:22:55;;;;;;;16.00;3.43;;;10.00;99.90;;;;;;5064058;28;20656;-78
2021/05/04 12:25:27;;;;;;;12.80;4.40;;;10.00;99.90;;;;;;5064323;28;20201;-78
2021/05/04 12:27:54;;;;;;;15.63;4.23;;;10.00;99.90;;;;;;5064333;28;20212;-77
2021/05/04 12:30:23;;;;;;;13.43;4.90;;;10.10;99.90;;;;;;5064406;28;20228;-78
2021/05/04 12:32:50;;;;;;;17.70;3.90;;;10.10;99.90;;;;;;5063923;28;20270;-80
2021/05/04 12:35:22;;;;;;;13.40;3.80;;;10.10;99.90;;;;;;5064677;28;20300;-77
2021/05/04 12:38:01;;;;;;;16.33;4.23;;;10.00;99.90;;;;;;5062831;28;20197;-78
2021/05/04 12:40:28;;;;;;;20.67;4.50;;;10.00;99.90;;;;;;5064165;28;20268;-77
2021/05/04 12:43:09;;;;;;;15.13;3.77;;;10.00;99.90;;;;;;5063450;28;20208;-76
2021/05/04 12:45:36;;;;;;;16.07;3.80;;;9.90;99.90;;;;;;5063756;28;20235;-77
2021/05/04 12:48:02;;;;;;;11.83;3.57;;;10.00;99.90;;;;;;5063847;28;20213;-77
2021/05/04 12:50:31;;;;;;;15.90;3.93;;;10.00;99.90;;;;;;5063446;28;21011;-78
2021/05/04 12:52:58;;;;;;;17.80;4.40;;;10.10;99.90;;;;;;5062679;28;20248;-76
2021/05/04 12:55:24;;;;;;;17.57;5.63;;;10.20;99.90;;;;;;5081159;28;20216;-74